Terminal Aerodrome Forecast
Issued by NWS Memphis, TN

Home | Current Version | Previous Version | Text Only | Print | Product List | Glossary On
Versions: 1 2 3 4 5 6 7 8 9 10 11 12 13 14
000
FTUS44 KMEG 011723
TAFJBR
TAF
KJBR 011723Z 0118/0218 13011G18KT P6SM BKN025 BKN250
     FM012000 16012G18KT P6SM VCTS SCT035CB OVC250
      TEMPO 0120/0123 24010G20KT 3SM -TSRA OVC030CB
     FM020300 18011G18KT P6SM VCTS SCT035CB OVC250
      TEMPO 0204/0207 VRB10G25KT 3SM TSRA
     FM020800 20014G22KT P6SM FEW010 BKN030 BKN100
      TEMPO 0211/0215 BKN010
     FM021700 20015G28KT P6SM VCTS BKN035CB OVC100=

USA.gov is the U.S. government's official web portal to all federal, state and local government web resources and services.